Time;durP1;ratioP1;P1;durP2;ratioP2;P2;SDS_P1;SDS_P2;PMS_P1;PMS_P2;Temp;Humidity;BMP_temperature;BMP_pressure;BME280_temperature;BME280_humidity;BME280_pressure;Samples;Min_cycle;Max_cycle;Signal;HPM_P1;HPM_P2
2022/03/16 00:01:58;;;;;;;11.88;5.60;;;;;;;-0.35;100.00;100079.16;5133758;28;20059;-60
2022/03/16 00:04:24;;;;;;;10.13;5.03;;;;;;;-0.35;100.00;100079.16;5133628;28;20050;-60
2022/03/16 00:06:51;;;;;;;14.70;5.63;;;;;;;-0.37;100.00;100070.50;5133344;28;20051;-60
2022/03/16 00:09:17;;;;;;;15.43;5.97;;;;;;;-0.42;100.00;100084.00;5133647;28;20047;-60
2022/03/16 00:11:43;;;;;;;13.48;5.25;;;;;;;-0.42;100.00;100086.69;5133516;28;20506;-60
2022/03/16 00:14:09;;;;;;;15.93;5.18;;;;;;;-0.43;100.00;100095.84;5133553;28;20047;-61
2022/03/16 00:16:36;;;;;;;13.13;5.93;;;;;;;-0.52;100.00;100091.00;5133536;28;20525;-60
2022/03/16 00:19:03;;;;;;;10.80;5.18;;;;;;;-0.51;100.00;100106.06;5133563;28;20093;-60
2022/03/16 00:21:30;;;;;;;9.68;4.95;;;;;;;-0.51;100.00;100107.97;5133249;28;20051;-60
2022/03/16 00:23:56;;;;;;;11.15;4.90;;;;;;;-0.51;100.00;100116.84;5133625;28;20078;-60
2022/03/16 00:26:22;;;;;;;11.48;5.13;;;;;;;-0.51;100.00;100127.63;5133183;28;20054;-60
2022/03/16 00:28:49;;;;;;;16.80;5.30;;;;;;;-0.55;100.00;100131.94;5133123;28;20077;-60
2022/03/16 00:31:15;;;;;;;10.98;5.47;;;;;;;-0.56;100.00;100145.69;5133088;28;20051;-60
2022/03/16 00:33:42;;;;;;;12.98;4.75;;;;;;;-0.60;100.00;100137.31;5133157;27;20105;-61
2022/03/16 00:36:08;;;;;;;11.48;5.15;;;;;;;-0.64;100.00;100136.22;5133126;28;20054;-60
2022/03/16 00:38:35;;;;;;;9.98;5.22;;;;;;;-0.66;100.00;100142.97;5132438;28;20058;-60
2022/03/16 00:41:02;;;;;;;12.32;4.82;;;;;;;-0.67;100.00;100160.19;5132933;28;20043;-60
2022/03/16 00:43:28;;;;;;;18.65;5.85;;;;;;;-0.64;100.00;100181.19;5133021;28;20403;-60
2022/03/16 00:45:54;;;;;;;12.18;5.35;;;;;;;-0.63;100.00;100177.41;5133213;28;20047;-60
2022/03/16 00:48:20;;;;;;;12.43;5.38;;;;;;;-0.66;100.00;100196.84;5132770;28;20136;-60
2022/03/16 00:50:47;;;;;;;12.77;5.47;;;;;;;-0.64;100.00;100208.94;5133210;28;20051;-60
2022/03/16 00:53:13;;;;;;;10.50;5.63;;;;;;;-0.68;100.00;100197.06;5133105;28;20047;-60
2022/03/16 00:55:40;;;;;;;12.52;5.18;;;;;;;-0.67;100.00;100193.31;5132877;28;20063;-60
2022/03/16 00:58:06;;;;;;;9.90;5.38;;;;;;;-0.72;100.00;100202.19;5132617;28;20047;-60
2022/03/16 01:00:32;;;;;;;12.80;6.15;;;;;;;-0.73;100.00;100205.16;5132769;28;20059;-60
2022/03/16 01:02:58;;;;;;;11.05;5.22;;;;;;;-0.76;100.00;100214.56;5132758;28;20067;-60
2022/03/16 01:05:25;;;;;;;9.82;5.35;;;;;;;-0.75;100.00;100224.25;5132646;28;20138;-60
2022/03/16 01:07:52;;;;;;;12.68;5.53;;;;;;;-0.78;100.00;100232.06;5132409;28;20051;-60
2022/03/16 01:10:18;;;;;;;12.88;6.03;;;;;;;-0.84;100.00;100243.88;5132679;28;20047;-59
2022/03/16 01:12:44;;;;;;;12.82;5.82;;;;;;;-0.82;100.00;100244.44;5132689;28;20058;-60
2022/03/16 01:15:10;;;;;;;12.27;5.82;;;;;;;-0.86;100.00;100256.81;5132793;28;20051;-60
2022/03/16 01:17:37;;;;;;;8.82;4.85;;;;;;;-0.89;100.00;100268.09;5133004;28;20152;-60
2022/03/16 01:20:04;;;;;;;10.35;5.47;;;;;;;-0.89;100.00;100284.25;5132445;28;20051;-60
2022/03/16 01:22:30;;;;;;;13.18;5.10;;;;;;;-0.89;100.00;100285.06;5132622;28;20434;-60
2022/03/16 01:24:57;;;;;;;14.45;5.93;;;;;;;-0.97;100.00;100294.44;5132077;28;20050;-60
2022/03/16 01:27:23;;;;;;;13.07;5.68;;;;;;;-1.01;100.00;100316.72;5132133;28;20073;-60
2022/03/16 01:29:49;;;;;;;12.55;6.22;;;;;;;-1.09;100.00;100336.88;5132158;28;20065;-61
2022/03/16 01:32:15;;;;;;;13.85;6.32;;;;;;;-1.11;100.00;100351.66;5132182;28;20051;-61
2022/03/16 01:34:42;;;;;;;15.15;6.13;;;;;;;-1.13;100.00;100373.47;5132184;28;20050;-61
2022/03/16 01:37:08;;;;;;;15.90;6.57;;;;;;;-1.09;100.00;100396.09;5132007;28;20051;-60
2022/03/16 01:39:34;;;;;;;13.35;5.85;;;;;;;-1.15;100.00;100404.38;5131386;28;20049;-61
2022/03/16 01:42:01;;;;;;;18.75;6.20;;;;;;;-1.08;100.00;100429.19;5132096;28;20051;-61
2022/03/16 01:44:45;;;;;;;16.30;6.93;;;;;;;-1.14;100.00;100431.00;5131832;27;20043;-60
2022/03/16 01:47:12;;;;;;;13.70;6.32;;;;;;;-1.21;100.00;100435.81;5131839;28;20051;-61
2022/03/16 01:49:39;;;;;;;13.35;6.60;;;;;;;-1.19;100.00;100455.22;5132001;28;20051;-60
2022/03/16 01:52:07;;;;;;;11.93;5.57;;;;;;;-1.28;100.00;100471.00;5131957;28;20047;-60
2022/03/16 01:54:33;;;;;;;13.02;5.90;;;;;;;-1.29;100.00;100496.28;5131689;28;20055;-60
2022/03/16 01:57:00;;;;;;;15.95;6.13;;;;;;;-1.30;100.00;100504.59;5131842;28;20053;-60
2022/03/16 01:59:26;;;;;;;14.65;5.70;;;;;;;-1.27;100.00;100518.34;5131735;28;20047;-61
2022/03/16 02:01:53;;;;;;;11.30;5.63;;;;;;;-1.25;100.00;100526.19;5131943;28;20093;-60
2022/03/16 02:04:19;;;;;;;13.05;6.10;;;;;;;-1.30;100.00;100535.03;5131734;28;20092;-60
2022/03/16 02:06:45;;;;;;;15.45;5.90;;;;;;;-1.30;100.00;100542.25;5131725;28;20047;-59
2022/03/16 02:09:12;;;;;;;9.27;5.18;;;;;;;-1.36;100.00;100540.59;5131603;28;20076;-60
2022/03/16 02:11:39;;;;;;;11.52;6.05;;;;;;;-1.36;100.00;100554.84;5131893;28;20058;-60
2022/03/16 02:14:05;;;;;;;14.02;5.85;;;;;;;-1.44;100.00;100558.78;5131321;28;20053;-61
2022/03/16 02:16:34;;;;;;;12.80;6.13;;;;;;;-1.43;100.00;100575.75;5131901;28;20079;-61
2022/03/16 02:19:00;;;;;;;15.98;6.75;;;;;;;-1.50;100.00;100592.09;5131397;28;20509;-60
2022/03/16 02:21:28;;;;;;;14.43;5.97;;;;;;;-1.47;100.00;100602.31;5131532;28;20047;-61
2022/03/16 02:23:55;;;;;;;15.63;6.55;;;;;;;-1.49;100.00;100609.03;5131371;28;20047;-61
2022/03/16 02:26:25;;;;;;;17.23;6.95;;;;;;;-1.52;100.00;100622.97;5131346;28;20467;-61
2022/03/16 02:28:52;;;;;;;13.80;6.40;;;;;;;-1.56;100.00;100628.03;5131275;28;20051;-61
2022/03/16 02:31:18;;;;;;;20.23;7.30;;;;;;;-1.59;100.00;100635.78;5131525;28;20126;-61
2022/03/16 02:33:45;;;;;;;13.32;6.63;;;;;;;-1.53;100.00;100649.06;5131154;28;20054;-61
2022/03/16 02:36:11;;;;;;;16.92;6.20;;;;;;;-1.50;100.00;100670.09;5131196;28;20069;-60
2022/03/16 02:38:38;;;;;;;15.30;7.43;;;;;;;-1.54;100.00;100663.56;5131393;28;20522;-61
2022/03/16 02:41:05;;;;;;;12.60;6.28;;;;;;;-1.54;100.00;100668.94;5130730;28;20425;-61
2022/03/16 02:43:31;;;;;;;14.25;6.43;;;;;;;-1.54;100.00;100666.25;5131487;28;20497;-61
2022/03/16 02:45:57;;;;;;;14.82;6.78;;;;;;;-1.58;100.00;100673.19;5130830;28;20175;-61
2022/03/16 02:48:23;;;;;;;14.48;6.97;;;;;;;-1.70;100.00;100683.22;5130882;28;20058;-60
2022/03/16 02:50:50;;;;;;;18.88;6.75;;;;;;;-1.68;100.00;100691.88;5131209;28;20055;-61
2022/03/16 02:53:16;;;;;;;17.15;7.45;;;;;;;-1.70;100.00;100691.28;5130923;28;20050;-61
2022/03/16 02:55:44;;;;;;;16.50;7.05;;;;;;;-1.70;100.00;100707.41;5130877;28;20551;-61
2022/03/16 02:58:11;;;;;;;14.02;6.85;;;;;;;-1.75;100.00;100705.47;5129950;28;20082;-60
2022/03/16 03:00:37;;;;;;;11.70;6.15;;;;;;;-1.77;100.00;100721.03;5130988;28;20066;-61
2022/03/16 03:03:03;;;;;;;13.15;6.38;;;;;;;-1.77;100.00;100726.41;5122281;28;20096;-61
2022/03/16 03:05:30;;;;;;;16.63;6.45;;;;;;;-1.77;100.00;100737.16;5130562;28;20051;-61
2022/03/16 03:07:56;;;;;;;13.20;6.10;;;;;;;-1.76;100.00;100740.69;5130634;28;20051;-61
2022/03/16 03:10:22;;;;;;;17.75;7.70;;;;;;;-1.81;100.00;100748.66;5131154;28;20050;-61
2022/03/16 03:12:49;;;;;;;15.20;7.20;;;;;;;-1.78;100.00;100751.66;5130596;28;20051;-61
2022/03/16 03:15:16;;;;;;;14.82;6.70;;;;;;;-1.82;100.00;100749.72;5130824;28;20053;-61
2022/03/16 03:17:43;;;;;;;18.65;7.80;;;;;;;-1.84;100.00;100755.31;5130614;28;20047;-61
2022/03/16 03:20:11;;;;;;;11.90;6.43;;;;;;;-1.85;100.00;100759.09;5130557;28;20081;-61
2022/03/16 03:22:37;;;;;;;17.58;6.93;;;;;;;-1.86;100.00;100762.03;5130763;28;20069;-61
2022/03/16 03:25:05;;;;;;;14.88;7.45;;;;;;;-1.92;100.00;100772.69;5130386;28;20047;-61
2022/03/16 03:27:32;;;;;;;20.92;9.23;;;;;;;-1.97;100.00;100785.22;5130762;28;20047;-61
2022/03/16 03:29:59;;;;;;;20.15;8.55;;;;;;;-1.95;100.00;100786.59;5130434;28;20415;-61
2022/03/16 03:32:26;;;;;;;19.85;8.48;;;;;;;-1.92;100.00;100798.75;5130495;28;20043;-61
2022/03/16 03:34:53;;;;;;;20.52;8.88;;;;;;;-1.95;100.00;100809.97;5130263;28;20047;-61
2022/03/16 03:37:19;;;;;;;19.27;7.20;;;;;;;-1.91;100.00;100808.44;5130518;28;20545;-61
2022/03/16 03:39:46;;;;;;;16.55;7.30;;;;;;;-1.96;100.00;100814.53;5129654;28;20059;-61
2022/03/16 03:42:13;;;;;;;14.38;7.72;;;;;;;-2.02;100.00;100812.81;5130507;28;20043;-61
2022/03/16 03:44:40;;;;;;;20.67;7.95;;;;;;;-2.03;100.00;100813.03;5130406;28;20080;-60
2022/03/16 03:47:07;;;;;;;16.48;8.00;;;;;;;-2.03;100.00;100819.25;5130102;28;20509;-61
2022/03/16 03:49:35;;;;;;;17.55;7.53;;;;;;;-2.00;100.00;100820.63;5130134;28;20049;-61
2022/03/16 03:52:02;;;;;;;19.15;7.68;;;;;;;-2.01;100.00;100824.38;5130035;28;20051;-61
2022/03/16 03:54:28;;;;;;;19.02;8.02;;;;;;;-2.02;100.00;100828.13;5130014;28;20068;-61
2022/03/16 03:56:55;;;;;;;22.27;7.50;;;;;;;-2.07;100.00;100828.84;5130152;28;20043;-61
2022/03/16 03:59:21;;;;;;;14.70;7.78;;;;;;;-2.10;100.00;100832.00;5130113;28;20528;-61
2022/03/16 04:01:47;;;;;;;17.67;8.15;;;;;;;-2.13;100.00;100829.81;5130112;28;20051;-61
2022/03/16 04:04:14;;;;;;;15.20;7.30;;;;;;;-2.11;100.00;100833.06;5130625;28;20058;-60
2022/03/16 04:06:41;;;;;;;18.60;7.63;;;;;;;-2.13;100.00;100843.25;5130079;28;20521;-61
2022/03/16 04:09:08;;;;;;;14.20;6.72;;;;;;;-2.11;100.00;100843.81;5132605;27;20051;-60
2022/03/16 04:11:34;;;;;;;16.88;7.82;;;;;;;-2.13;100.00;100846.75;5133595;28;20460;-61
2022/03/16 04:14:01;;;;;;;16.08;8.18;;;;;;;-2.11;100.00;100841.13;5133915;28;20520;-61
2022/03/16 04:16:27;;;;;;;19.17;8.50;;;;;;;-2.18;100.00;100841.28;5133820;28;20092;-61
2022/03/16 04:18:54;;;;;;;17.50;7.97;;;;;;;-2.11;100.00;100843.00;5133206;28;20051;-61
2022/03/16 04:21:21;;;;;;;20.80;7.97;;;;;;;-2.13;100.00;100844.06;5133314;28;20137;-60
2022/03/16 04:23:49;;;;;;;21.52;9.00;;;;;;;-2.19;100.00;100850.38;5133230;28;20115;-60
2022/03/16 04:26:15;;;;;;;18.17;7.55;;;;;;;-2.15;100.00;100853.41;5133480;28;20043;-61
2022/03/16 04:28:41;;;;;;;17.70;8.27;;;;;;;-2.14;100.00;100857.72;5133072;28;20051;-61
2022/03/16 04:31:08;;;;;;;22.05;8.27;;;;;;;-2.15;100.00;100856.91;5133690;28;20051;-61
2022/03/16 04:33:34;;;;;;;19.33;8.82;;;;;;;-2.18;100.00;100856.56;5132915;28;20167;-61
2022/03/16 04:36:01;;;;;;;21.48;7.70;;;;;;;-2.15;100.00;100853.41;5133519;28;20047;-60
2022/03/16 04:38:27;;;;;;;17.58;7.80;;;;;;;-2.18;100.00;100857.38;5133039;28;20055;-61
2022/03/16 04:40:54;;;;;;;17.20;8.13;;;;;;;-2.19;100.00;100854.97;5132680;28;20402;-61
2022/03/16 04:43:20;;;;;;;20.00;6.78;;;;;;;-2.17;100.00;100860.88;5133091;28;20078;-61
2022/03/16 04:45:46;;;;;;;15.25;7.00;;;;;;;-2.14;100.00;100866.59;5132776;28;20520;-61
2022/03/16 04:48:12;;;;;;;19.38;7.72;;;;;;;-2.17;100.00;100869.75;5132660;28;20464;-61
2022/03/16 04:50:39;;;;;;;17.73;6.80;;;;;;;-2.04;100.00;100863.28;5132987;28;20070;-61
2022/03/16 04:53:06;;;;;;;12.05;6.70;;;;;;;-2.02;100.00;100866.56;5132928;28;20051;-61
2022/03/16 04:55:35;;;;;;;15.35;6.70;;;;;;;-2.02;100.00;100858.50;5132905;28;20051;-61
2022/03/16 04:58:02;;;;;;;13.68;7.05;;;;;;;-1.95;100.00;100853.81;5132824;28;20050;-62
2022/03/16 05:00:29;;;;;;;18.27;7.60;;;;;;;-1.89;100.00;100857.41;5132441;28;20425;-69
2022/03/16 05:02:55;;;;;;;16.92;6.95;;;;;;;-1.77;100.00;100855.47;5132851;28;20047;-69
2022/03/16 05:05:21;;;;;;;16.02;6.85;;;;;;;-1.68;100.00;100858.59;5132317;28;20053;-69
2022/03/16 05:07:48;;;;;;;16.80;6.75;;;;;;;-1.09;100.00;100863.59;5132178;28;20047;-70
2022/03/16 05:10:14;;;;;;;10.75;6.00;;;;;;;0.03;100.00;100848.84;5132525;28;20391;-68
2022/03/16 05:12:41;;;;;;;11.23;5.95;;;;;;;0.96;100.00;100762.19;5132324;28;20059;-70
2022/03/16 05:15:11;;;;;;;12.07;6.20;;;;;;;1.75;100.00;100504.28;5132112;28;20486;-69
2022/03/16 05:17:37;;;;;;;13.18;6.13;;;;;;;2.24;100.00;100132.91;5143521;27;20051;-67
2022/03/16 05:20:04;;;;;;;14.73;6.22;;;;;;;2.80;100.00;99866.94;5125922;27;20047;-69
2022/03/16 05:22:31;;;;;;;20.70;6.47;;;;;;;3.25;100.00;99680.25;5135136;27;20055;-70
2022/03/16 05:24:57;;;;;;;12.23;6.28;;;;;;;3.36;100.00;99596.81;5145195;27;20098;-68
2022/03/16 05:27:23;;;;;;;14.95;6.68;;;;;;;3.64;100.00;99588.59;5152371;27;20050;-67
2022/03/16 05:29:49;;;;;;;15.02;6.53;;;;;;;3.99;100.00;99587.69;5151842;27;20100;-69
2022/03/16 05:32:16;;;;;;;13.68;5.78;;;;;;;4.31;100.00;99617.56;5152487;27;20054;-66
2022/03/16 05:34:43;;;;;;;10.68;5.88;;;;;;;4.63;100.00;99638.13;5149128;27;20395;-65
2022/03/16 05:37:09;;;;;;;13.85;6.18;;;;;;;4.61;100.00;99665.63;5151878;27;20043;-65
2022/03/16 05:39:35;;;;;;;11.38;6.13;;;;;;;4.83;100.00;99685.66;5151332;27;20070;-69
2022/03/16 05:42:01;;;;;;;10.05;6.30;;;;;;;5.09;100.00;99712.94;5152361;27;20047;-67
2022/03/16 05:44:28;;;;;;;15.95;8.77;;;;;;;5.35;100.00;99719.25;5152521;27;20120;-66
2022/03/16 05:46:57;;;;;;;12.05;6.60;;;;;;;5.45;100.00;99761.66;5152492;27;20393;-66
2022/03/16 05:49:25;;;;;;;12.90;6.50;;;;;;;5.70;100.00;99767.47;5147432;27;20180;-69
2022/03/16 05:51:52;;;;;;;11.45;6.55;;;;;;;5.90;100.00;99785.94;5151169;27;20049;-68
2022/03/16 05:54:18;;;;;;;14.80;6.43;;;;;;;6.09;100.00;99819.09;5151903;27;20057;-69
2022/03/16 05:56:45;;;;;;;25.55;9.73;;;;;;;5.90;100.00;99824.03;5152129;27;20047;-67
2022/03/16 05:59:11;;;;;;;11.40;6.47;;;;;;;6.12;100.00;99836.72;5142047;27;20417;-69
2022/03/16 06:01:37;;;;;;;16.30;6.68;;;;;;;5.96;100.00;99863.59;5131264;28;20047;-68
2022/03/16 06:04:04;;;;;;;13.45;6.13;;;;;;;6.00;100.00;99853.69;5149443;27;20487;-66
2022/03/16 06:06:31;;;;;;;11.43;6.60;;;;;;;6.01;100.00;99862.66;5151249;27;20501;-66
2022/03/16 06:08:57;;;;;;;13.77;6.25;;;;;;;6.04;100.00;99865.53;5140983;27;20424;-65
2022/03/16 06:11:23;;;;;;;12.05;6.53;;;;;;;6.28;100.00;99880.63;5141696;27;20055;-65
2022/03/16 06:13:50;;;;;;;14.15;6.45;;;;;;;6.94;100.00;99875.81;5151786;27;20054;-67
2022/03/16 06:16:16;;;;;;;11.02;6.25;;;;;;;7.32;100.00;99908.63;5151172;27;20050;-67
2022/03/16 06:18:42;;;;;;;12.38;5.55;;;;;;;7.47;100.00;99942.78;5152023;27;20061;-70
2022/03/16 06:21:09;;;;;;;13.23;7.05;;;;;;;7.52;100.00;99950.75;5151953;27;20134;-69
2022/03/16 06:23:36;;;;;;;15.05;6.10;;;;;;;7.84;100.00;99961.44;5140496;27;20138;-67
2022/03/16 06:26:05;;;;;;;14.13;6.60;;;;;;;8.46;100.00;99988.16;5131027;28;20136;-69
2022/03/16 06:28:31;;;;;;;38.40;17.77;;;;;;;8.41;100.00;100008.28;5130862;28;20137;-66
2022/03/16 06:30:57;;;;;;;13.20;6.65;;;;;;;8.36;100.00;100027.53;5130858;27;20107;-66
2022/03/16 06:33:23;;;;;;;17.27;7.72;;;;;;;8.49;100.00;100034.75;5139941;27;20078;-66
2022/03/16 06:35:50;;;;;;;11.77;6.10;;;;;;;8.39;100.00;100026.91;5150911;27;20424;-66
2022/03/16 06:38:16;;;;;;;13.55;6.20;;;;;;;7.99;100.00;100040.88;5151377;27;20088;-65
2022/03/16 06:40:43;;;;;;;14.23;6.47;;;;;;;8.17;100.00;100032.63;5150650;27;20051;-64
2022/03/16 06:43:09;;;;;;;12.48;5.78;;;;;;;8.11;100.00;100044.88;5135442;27;20114;-65
2022/03/16 06:45:35;;;;;;;21.98;10.93;;;;;;;8.18;100.00;100032.28;5130700;28;20061;-66
2022/03/16 06:48:02;;;;;;;21.42;11.13;;;;;;;8.84;100.00;100045.50;5130790;28;20508;-65
2022/03/16 06:50:30;;;;;;;31.67;13.35;;;;;;;8.93;100.00;100057.19;5131277;28;20061;-68
2022/03/16 06:52:57;;;;;;;16.67;6.10;;;;;;;8.58;100.00;100094.03;5144244;27;20510;-66
2022/03/16 06:55:24;;;;;;;13.38;6.05;;;;;;;7.76;100.00;100072.25;5141741;27;20053;-68
2022/03/16 06:57:51;;;;;;;12.90;5.90;;;;;;;7.76;100.00;100051.22;5139903;27;20448;-67
2022/03/16 07:00:18;;;;;;;13.38;7.13;;;;;;;8.05;100.00;100054.34;5139157;27;20051;-64
2022/03/16 07:02:55;;;;;;;14.13;6.65;;;;;;;7.89;100.00;100057.59;5132449;27;20055;-64
2022/03/16 07:05:25;;;;;;;10.63;6.15;;;;;;;7.94;100.00;100068.38;5132148;27;21379;-64
2022/03/16 07:07:51;;;;;;;16.60;6.50;;;;;;;7.68;100.00;100030.19;5141885;27;20051;-65
2022/03/16 07:10:18;;;;;;;31.20;11.25;;;;;;;8.42;100.00;100039.94;5130618;27;20103;-65
2022/03/16 07:12:44;;;;;;;13.05;6.47;;;;;;;8.44;100.00;100077.88;5130497;28;20043;-66
2022/03/16 07:15:11;;;;;;;15.15;7.95;;;;;;;8.79;100.00;100064.81;5130095;27;20047;-66
2022/03/16 07:17:37;;;;;;;17.73;9.00;;;;;;;9.54;100.00;100075.06;5150600;27;20149;-66
2022/03/16 07:20:06;;;;;;;23.90;10.90;;;;;;;10.01;100.00;100093.94;5151330;27;20047;-65
2022/03/16 07:22:33;;;;;;;440.63;154.73;;;;;;;10.12;100.00;100112.34;5148763;27;20052;-66
2022/03/16 07:24:59;;;;;;;21.65;8.70;;;;;;;10.06;100.00;100124.69;5148327;27;20217;-66
2022/03/16 07:27:26;;;;;;;34.33;13.02;;;;;;;10.10;100.00;100116.59;5130155;27;20507;-64
2022/03/16 07:29:52;;;;;;;27.40;10.10;;;;;;;10.31;100.00;100133.78;5130072;28;20489;-64
2022/03/16 07:32:19;;;;;;;17.13;8.40;;;;;;;10.48;100.00;100126.50;5130196;28;20047;-64
2022/03/16 07:34:46;;;;;;;21.92;8.68;;;;;;;11.05;100.00;100137.38;5130007;28;20055;-65
2022/03/16 07:37:12;;;;;;;20.20;7.82;;;;;;;11.17;100.00;100153.03;5136557;27;20199;-65
2022/03/16 07:39:38;;;;;;;10.48;6.10;;;;;;;10.97;100.00;100160.25;5147846;27;20042;-65
2022/03/16 07:42:05;;;;;;;25.30;14.05;;;;;;;10.98;100.00;100158.31;5150378;27;20138;-66
2022/03/16 07:44:31;;;;;;;16.73;8.07;;;;;;;11.06;100.00;100168.34;5153607;27;20050;-66
2022/03/16 07:46:57;;;;;;;29.83;14.52;;;;;;;11.42;100.00;100162.03;5135881;27;20051;-68
2022/03/16 07:49:24;;;;;;;10.90;7.03;;;;;;;11.23;98.27;100179.13;5133178;28;20107;-64
2022/03/16 07:51:50;;;;;;;19.10;10.40;;;;;;;10.61;100.00;100177.47;5134007;28;20486;-64
2022/03/16 07:54:17;;;;;;;11.90;6.47;;;;;;;10.13;100.00;100173.44;5133431;28;20069;-64
2022/03/16 07:56:44;;;;;;;11.60;5.97;;;;;;;10.08;100.00;100173.66;5148811;27;20046;-65
2022/03/16 07:59:11;;;;;;;10.48;5.78;;;;;;;10.71;100.00;100154.31;5153951;27;20062;-64
2022/03/16 08:01:39;;;;;;;9.82;6.05;;;;;;;10.14;100.00;100169.56;5153991;27;20435;-64
2022/03/16 08:04:07;;;;;;;11.23;6.13;;;;;;;9.06;100.00;100164.72;5153864;27;20146;-64
2022/03/16 08:06:34;;;;;;;11.38;5.43;;;;;;;7.72;100.00;100139.53;5139479;27;20126;-63
2022/03/16 08:09:00;;;;;;;11.35;5.75;;;;;;;7.21;100.00;100102.91;5132826;27;20147;-64
2022/03/16 08:11:26;;;;;;;10.80;6.05;;;;;;;7.03;100.00;100083.81;5133136;28;20471;-65
2022/03/16 08:13:53;;;;;;;11.23;5.50;;;;;;;7.01;100.00;100060.72;5132792;28;20051;-63
2022/03/16 08:16:19;;;;;;;10.55;5.68;;;;;;;7.66;100.00;100061.66;5143800;27;20095;-66
2022/03/16 08:18:45;;;;;;;10.50;5.72;;;;;;;8.05;100.00;100073.47;5153726;27;20112;-64
2022/03/16 08:21:12;;;;;;;11.55;5.55;;;;;;;8.16;100.00;100099.28;5153656;27;20058;-62
2022/03/16 08:23:39;;;;;;;12.30;4.88;;;;;;;7.22;100.00;100115.44;5153272;27;20521;-61
2022/03/16 08:26:05;;;;;;;11.55;5.53;;;;;;;6.57;100.00;100092.53;5144098;27;20047;-62
2022/03/16 08:28:31;;;;;;;9.00;5.13;;;;;;;6.45;100.00;100059.63;5133189;27;20047;-60
2022/03/16 08:30:59;;;;;;;11.65;4.95;;;;;;;6.47;100.00;100038.31;5132943;28;20051;-64
2022/03/16 08:33:25;;;;;;;10.00;5.38;;;;;;;6.54;100.00;100052.28;5144567;27;20406;-66
2022/03/16 08:35:51;;;;;;;9.43;4.90;;;;;;;6.13;100.00;100054.22;5153672;27;20047;-63
2022/03/16 08:38:18;;;;;;;11.80;4.93;;;;;;;6.03;100.00;100032.72;5136753;27;20054;-63
2022/03/16 08:40:45;;;;;;;6.40;3.95;;;;;;;5.72;100.00;100031.84;5132853;28;20069;-64
2022/03/16 08:43:11;;;;;;;9.75;4.47;;;;;;;5.87;100.00;100018.66;5141938;27;20051;-63
2022/03/16 08:45:39;;;;;;;12.45;4.28;;;;;;;6.41;100.00;100032.22;5153520;27;20050;-63
2022/03/16 08:48:05;;;;;;;8.45;4.40;;;;;;;6.59;100.00;100063.00;5151951;27;20509;-61
2022/03/16 08:50:32;;;;;;;9.20;4.95;;;;;;;6.36;100.00;100073.19;5149298;27;20046;-65
2022/03/16 08:52:58;;;;;;;8.18;4.60;;;;;;;6.31;100.00;100081.50;5141226;27;20054;-65
2022/03/16 08:55:24;;;;;;;10.40;4.35;;;;;;;6.06;100.00;100097.38;5142729;27;20053;-65
2022/03/16 08:57:51;;;;;;;9.18;4.20;;;;;;;5.80;100.00;100088.25;5154131;27;20055;-65
2022/03/16 09:00:18;;;;;;;9.13;4.38;;;;;;;5.62;100.00;100073.72;5148315;27;20047;-65
2022/03/16 09:02:46;;;;;;;8.93;4.00;;;;;;;5.80;100.00;100067.28;5132545;27;20448;-64
2022/03/16 09:05:15;;;;;;;9.73;4.10;;;;;;;6.03;100.00;100098.03;5132260;27;20043;-64
2022/03/16 09:07:41;;;;;;;8.38;3.88;;;;;;;5.64;100.00;100147.69;5132683;28;20341;-63
2022/03/16 09:10:09;;;;;;;7.07;2.97;;;;;;;5.54;100.00;100159.59;5132465;27;20058;-63
2022/03/16 09:12:35;;;;;;;9.73;3.72;;;;;;;5.63;100.00;100165.09;5132409;27;20116;-63
2022/03/16 09:15:03;;;;;;;19.48;6.25;;;;;;;5.97;100.00;100155.63;5132116;27;20051;-62
2022/03/16 09:17:30;;;;;;;6.35;3.28;;;;;;;6.02;100.00;100161.75;5132162;27;20047;-64
2022/03/16 09:19:57;;;;;;;8.00;3.63;;;;;;;5.87;100.00;100187.41;5132451;28;20055;-63
2022/03/16 09:22:24;;;;;;;7.60;3.35;;;;;;;5.73;100.00;100177.66;5132180;27;20054;-63
2022/03/16 09:24:50;;;;;;;7.15;3.53;;;;;;;5.71;100.00;100188.06;5132125;27;20093;-64
2022/03/16 09:27:16;;;;;;;6.70;3.63;;;;;;;5.77;100.00;100182.19;5134945;27;20114;-64
2022/03/16 09:29:47;;;;;;;4.82;3.15;;;;;;;5.97;100.00;100188.31;5152988;27;20141;-64
2022/03/16 09:32:14;;;;;;;6.00;2.97;;;;;;;6.34;100.00;100215.13;5151697;27;20078;-65
2022/03/16 09:34:42;;;;;;;8.55;2.95;;;;;;;6.26;100.00;100234.13;5138804;27;20059;-64
2022/03/16 09:37:10;;;;;;;7.68;3.83;;;;;;;6.13;100.00;100236.63;5150038;27;20078;-64
2022/03/16 09:39:37;;;;;;;7.32;3.45;;;;;;;6.30;100.00;100225.06;5140425;27;20524;-65
2022/03/16 09:42:04;;;;;;;8.38;3.90;;;;;;;6.36;100.00;100221.09;5151402;27;20111;-65
2022/03/16 09:44:31;;;;;;;13.10;4.43;;;;;;;6.25;100.00;100230.59;5136910;27;20055;-66
2022/03/16 09:46:58;;;;;;;9.50;4.35;;;;;;;6.55;100.00;100237.22;5140792;27;20082;-65
2022/03/16 09:49:26;;;;;;;5.47;3.10;;;;;;;6.47;100.00;100248.88;5132790;27;20057;-66
2022/03/16 09:51:53;;;;;;;9.73;3.22;;;;;;;6.67;100.00;100258.44;5135228;27;20047;-67
2022/03/16 09:54:19;;;;;;;12.88;4.32;;;;;;;6.97;100.00;100266.94;5136301;27;20046;-65
2022/03/16 09:56:47;;;;;;;8.02;3.03;;;;;;;7.04;99.13;100279.00;5145212;27;20054;-63
2022/03/16 09:59:14;;;;;;;4.82;2.65;;;;;;;6.92;95.91;100289.69;5140816;27;20062;-65
2022/03/16 10:01:42;;;;;;;6.03;2.80;;;;;;;6.86;95.47;100301.81;5145145;27;20051;-61
2022/03/16 10:04:09;;;;;;;4.63;3.10;;;;;;;7.12;96.00;100321.06;5138593;27;20057;-67
2022/03/16 10:06:36;;;;;;;5.55;3.17;;;;;;;7.21;96.60;100311.00;5139551;27;20524;-68
2022/03/16 10:15:04;;;;;;;7.63;3.15;;;;;;;7.76;98.20;100305.09;5152555;27;20154;-67
2022/03/16 10:17:45;;;;;;;9.52;3.83;;;;;;;8.06;95.82;100309.94;5151555;27;20055;-67
2022/03/16 10:20:23;;;;;;;4.55;3.55;;;;;;;8.04;97.83;100307.53;5137215;27;20082;-67
2022/03/16 10:22:58;;;;;;;6.25;3.75;;;;;;;7.85;97.48;100298.81;5137839;27;20047;-66
2022/03/16 10:25:25;;;;;;;5.38;3.47;;;;;;;7.92;100.00;100280.84;5130525;28;20051;-58
2022/03/16 10:27:53;;;;;;;7.32;3.20;;;;;;;8.10;98.56;100295.34;5130456;28;20070;-65
2022/03/16 10:30:20;;;;;;;6.28;3.53;;;;;;;8.38;96.70;100300.50;5130217;28;20498;-65
2022/03/16 10:32:55;;;;;;;9.55;3.97;;;;;;;8.18;94.22;100304.66;5149144;27;20058;-65
2022/03/16 10:35:23;;;;;;;6.72;3.65;;;;;;;7.79;95.88;100307.16;5151316;27;20050;-65
2022/03/16 10:37:50;;;;;;;8.20;3.63;;;;;;;7.86;99.20;100298.50;5134240;27;20062;-69
2022/03/16 10:40:20;;;;;;;6.50;3.33;;;;;;;8.14;96.13;100304.50;5142384;27;20050;-67
2022/03/16 10:48:16;;;;;;;;;;;;;;;7.87;91.34;100321.97;5142006;27;20082;-64
2022/03/16 10:50:44;;;;;;;5.20;3.05;;;;;;;8.09;88.94;100323.75;5138682;27;19923;-64
2022/03/16 10:53:11;;;;;;;4.68;2.85;;;;;;;8.56;87.87;100323.16;5151281;27;20055;-67
2022/03/16 10:55:39;;;;;;;6.95;3.22;;;;;;;8.42;85.54;100337.78;5141294;27;20047;-71
2022/03/16 10:58:07;;;;;;;7.18;3.50;;;;;;;8.05;85.58;100332.91;5140521;27;20050;-70
2022/03/16 11:00:35;;;;;;;3.33;2.88;;;;;;;7.73;88.42;100322.09;5141303;27;20061;-69
2022/03/16 11:03:02;;;;;;;7.78;3.15;;;;;;;7.88;89.30;100323.56;5141054;27;20046;-64
2022/03/16 11:05:29;;;;;;;5.00;2.80;;;;;;;7.92;88.14;100329.19;5143230;27;20051;-66
2022/03/16 11:07:55;;;;;;;12.95;3.60;;;;;;;7.78;89.51;100321.94;5141818;27;20047;-66
2022/03/16 11:10:22;;;;;;;10.02;3.75;;;;;;;7.57;91.86;100328.31;5129929;28;20047;-65
2022/03/16 11:15:35;;;;;;;7.70;3.00;;;;;;;7.37;91.11;100313.31;5141936;27;20453;-64
2022/03/16 11:18:02;;;;;;;9.57;4.25;;;;;;;7.89;92.41;100313.44;5142977;27;20051;-70
2022/03/16 11:20:32;;;;;;;5.40;3.13;;;;;;;7.94;88.50;100326.97;5150911;27;20051;-67
2022/03/16 11:25:58;;;;;;;9.02;2.85;;;;;;;7.55;90.57;100315.78;5130252;28;20045;-64
2022/03/16 11:28:35;;;;;;;5.05;2.90;;;;;;;7.10;92.03;100312.41;5130688;28;20977;-63
2022/03/16 11:31:01;;;;;;;9.43;3.20;;;;;;;6.73;94.75;100310.88;5130335;28;20141;-61
2022/03/16 11:33:27;;;;;;;4.88;3.05;;;;;;;6.51;94.46;100314.44;5130410;28;20050;-62